Time;durP1;ratioP1;P1;durP2;ratioP2;P2;SDS_P1;SDS_P2;PMS_P1;PMS_P2;Temp;Humidity;BMP_temperature;BMP_pressure;BME280_temperature;BME280_humidity;BME280_pressure;Samples;Min_cycle;Max_cycle;Signal;HPM_P1;HPM_P2
2022/09/03 00:00:09;;;;;;;0.95;0.70;;;25.20;46.00;;;;;;5031088;28;20497;-64
2022/09/03 00:02:46;;;;;;;0.85;0.60;;;25.20;45.50;;;;;;4961084;28;20407;-64
2022/09/03 00:05:20;;;;;;;1.10;0.77;;;25.20;45.50;;;;;;4961431;28;20074;-63
2022/09/03 00:07:58;;;;;;;0.93;0.60;;;25.20;45.40;;;;;;5004537;28;20070;-64
2022/09/03 00:10:44;;;;;;;1.50;0.80;;;25.20;45.40;;;;;;5030170;28;20087;-66
2022/09/03 00:13:15;;;;;;;0.85;0.60;;;25.20;45.50;;;;;;5029709;28;20477;-65
2022/09/03 00:15:41;;;;;;;1.00;0.60;;;25.20;45.40;;;;;;5030143;28;20492;-63
2022/09/03 00:18:15;;;;;;;0.65;0.50;;;25.20;46.00;;;;;;5031588;28;20025;-66
2022/09/03 00:20:49;;;;;;;0.80;0.70;;;25.20;45.50;;;;;;5031610;28;20025;-65
2022/09/03 00:23:21;;;;;;;0.93;0.63;;;25.20;45.50;;;;;;5030944;28;20052;-63
2022/09/03 00:26:11;;;;;;;1.25;0.70;;;25.10;45.40;;;;;;5030496;28;20033;-65
2022/09/03 00:29:02;;;;;;;1.55;0.60;;;25.10;45.40;;;;;;5030567;28;20060;-64
2022/09/03 00:31:38;;;;;;;0.63;0.60;;;25.10;45.50;;;;;;5031084;28;20087;-65
2022/09/03 00:34:25;;;;;;;0.55;0.50;;;25.10;45.40;;;;;;5028836;28;20026;-63
2022/09/03 00:36:52;;;;;;;0.70;0.57;;;25.10;45.50;;;;;;5028744;28;20493;-64
2022/09/03 00:39:21;;;;;;;0.40;0.40;;;25.10;45.50;;;;;;5029694;28;20148;-64
2022/09/03 00:42:05;;;;;;;1.05;0.75;;;25.10;45.50;;;;;;5030995;28;20393;-65
2022/09/03 00:44:44;;;;;;;0.65;0.60;;;25.10;45.50;;;;;;5030452;28;20029;-64
2022/09/03 00:47:41;;;;;;;1.65;0.60;;;25.10;45.50;;;;;;5029156;28;20022;-65
2022/09/03 00:50:25;;;;;;;0.40;0.40;;;25.00;45.50;;;;;;5021773;28;20041;-65
2022/09/03 00:53:13;;;;;;;0.50;0.50;;;25.00;45.50;;;;;;5030696;28;20392;-65
2022/09/03 00:55:55;;;;;;;0.68;0.50;;;25.00;45.60;;;;;;5030951;28;20025;-66
2022/09/03 00:59:16;;;;;;;0.73;0.60;;;25.00;45.60;;;;;;5030315;28;20526;-64
2022/09/03 01:02:20;;;;;;;0.93;0.50;;;25.00;45.60;;;;;;5005715;28;20427;-66
2022/09/03 01:05:10;;;;;;;0.50;0.50;;;24.90;45.60;;;;;;5031936;28;20014;-64
2022/09/03 01:07:52;;;;;;;0.60;0.57;;;24.90;45.60;;;;;;5035312;28;20029;-65
2022/09/03 01:10:38;;;;;;;0.65;0.60;;;24.90;45.70;;;;;;5034989;28;20065;-66
2022/09/03 01:13:22;;;;;;;0.75;0.68;;;24.90;45.70;;;;;;5034594;28;20049;-64
2022/09/03 01:16:27;;;;;;;0.52;0.52;;;24.90;45.70;;;;;;5034520;28;20484;-63
2022/09/03 01:19:15;;;;;;;0.77;0.60;;;24.80;45.70;;;;;;5032946;28;20041;-64
2022/09/03 01:21:57;;;;;;;0.50;0.50;;;24.80;45.80;;;;;;5032887;28;20037;-65
2022/09/03 01:24:48;;;;;;;0.60;0.50;;;24.80;45.80;;;;;;5034712;28;20025;-64
2022/09/03 01:27:20;;;;;;;0.55;0.52;;;24.80;45.80;;;;;;5034629;28;20028;-65
2022/09/03 01:30:06;;;;;;;0.63;0.57;;;24.80;45.90;;;;;;5034215;28;20380;-64
2022/09/03 01:32:44;;;;;;;1.33;0.80;;;24.70;45.90;;;;;;5032959;28;20510;-64
2022/09/03 01:35:27;;;;;;;0.60;0.60;;;24.70;45.90;;;;;;5034444;28;20030;-66
2022/09/03 01:38:11;;;;;;;0.98;0.50;;;24.70;46.00;;;;;;5033509;28;20095;-63
2022/09/03 01:42:12;;;;;;;0.55;0.50;;;24.70;46.00;;;;;;5033313;28;20742;-65
2022/09/03 01:44:09;;;;;;;0.60;0.60;;;24.70;46.00;;;;;;5034178;28;20427;-64
2022/09/03 01:46:45;;;;;;;0.65;0.60;;;24.70;46.00;;;;;;5033924;28;20477;-64
2022/09/03 01:49:31;;;;;;;0.40;0.40;;;24.70;46.10;;;;;;5034254;28;20496;-65
2022/09/03 01:52:25;;;;;;;0.50;0.50;;;24.60;46.10;;;;;;5033728;28;20029;-64
2022/09/03 01:55:11;;;;;;;0.65;0.47;;;24.60;46.10;;;;;;5033482;28;20427;-66
2022/09/03 01:57:47;;;;;;;0.82;0.60;;;24.60;46.20;;;;;;5033184;28;20033;-65
2022/09/03 02:00:21;;;;;;;0.50;0.50;;;24.60;46.20;;;;;;5032275;28;20032;-64
2022/09/03 02:02:52;;;;;;;0.60;0.50;;;24.60;46.70;;;;;;5034039;28;20457;-65
2022/09/03 02:05:26;;;;;;;0.50;0.50;;;24.60;46.20;;;;;;5034043;28;20105;-65
2022/09/03 02:07:59;;;;;;;0.60;0.45;;;24.50;46.20;;;;;;5033716;28;20041;-65
2022/09/03 02:10:31;;;;;;;0.60;0.50;;;24.50;46.30;;;;;;5032173;28;20480;-65
2022/09/03 02:13:09;;;;;;;0.60;0.57;;;24.50;46.30;;;;;;5033662;28;20042;-64
2022/09/03 02:15:36;;;;;;;0.63;0.50;;;24.50;46.30;;;;;;5031263;28;20065;-66
2022/09/03 02:18:07;;;;;;;0.70;0.50;;;24.50;46.30;;;;;;5033248;28;20540;-64
2022/09/03 02:20:33;;;;;;;0.60;0.50;;;24.50;46.30;;;;;;5033753;28;20120;-65
2022/09/03 02:22:59;;;;;;;0.40;0.40;;;24.50;46.40;;;;;;5033667;28;20517;-65
2022/09/03 02:25:34;;;;;;;0.50;0.50;;;24.50;46.40;;;;;;5033628;28;20025;-64
2022/09/03 02:28:00;;;;;;;0.50;0.50;;;24.50;46.40;;;;;;5033601;28;20029;-64
2022/09/03 02:30:26;;;;;;;0.80;0.50;;;24.50;46.50;;;;;;5033390;28;20485;-65
2022/09/03 02:32:52;;;;;;;0.50;0.50;;;24.40;46.40;;;;;;5033470;28;20032;-64
2022/09/03 02:35:18;;;;;;;0.50;0.50;;;24.40;46.50;;;;;;5033384;28;20083;-64
2022/09/03 02:37:44;;;;;;;0.50;0.50;;;24.40;46.50;;;;;;5033290;28;20029;-64
2022/09/03 02:40:10;;;;;;;0.45;0.40;;;24.40;46.50;;;;;;5033413;28;20376;-63
2022/09/03 02:42:36;;;;;;;0.98;0.60;;;24.40;46.50;;;;;;5032472;28;20697;-64
2022/09/03 02:45:27;;;;;;;0.60;0.60;;;24.40;46.50;;;;;;5033271;28;20017;-65
2022/09/03 02:47:56;;;;;;;0.40;0.40;;;24.30;46.50;;;;;;5032355;28;20029;-65
2022/09/03 02:50:22;;;;;;;;;;;24.30;46.50;;;;;;5033217;28;20029;-66
2022/09/03 02:52:48;;;;;;;0.60;0.60;;;24.30;46.50;;;;;;5033356;28;19905;-62
2022/09/03 02:55:14;;;;;;;1.15;0.60;;;24.30;46.60;;;;;;5033108;28;20041;-64
2022/09/03 02:57:40;;;;;;;0.65;0.50;;;24.30;46.60;;;;;;5032998;28;20021;-64
2022/09/03 03:00:07;;;;;;;0.60;0.55;;;24.30;46.60;;;;;;5032983;28;20071;-65
2022/09/03 03:02:33;;;;;;;0.50;0.50;;;24.30;46.60;;;;;;5032693;28;20029;-65
2022/09/03 03:04:58;;;;;;;0.77;0.70;;;24.30;46.60;;;;;;5032860;28;20029;-64
2022/09/03 03:07:25;;;;;;;0.65;0.60;;;24.30;46.60;;;;;;5032878;28;20025;-65
2022/09/03 03:09:51;;;;;;;0.43;0.43;;;24.30;46.70;;;;;;5032762;28;20515;-64
2022/09/03 03:12:16;;;;;;;0.90;0.60;;;24.30;46.70;;;;;;5032884;28;20033;-64
2022/09/03 03:14:42;;;;;;;0.47;0.47;;;24.30;46.70;;;;;;5032109;28;20472;-65
2022/09/03 03:17:08;;;;;;;0.77;0.60;;;24.30;46.70;;;;;;5032548;28;20392;-65
2022/09/03 03:19:34;;;;;;;0.47;0.47;;;24.30;46.80;;;;;;5032643;28;20114;-64
2022/09/03 03:21:59;;;;;;;0.50;0.50;;;24.20;46.70;;;;;;5032540;28;20486;-64
2022/09/03 03:24:25;;;;;;;0.77;0.55;;;24.20;46.80;;;;;;5032414;28;20021;-64
2022/09/03 03:26:56;;;;;;;0.50;0.50;;;24.20;46.80;;;;;;5032972;28;20029;-66
2022/09/03 03:29:23;;;;;;;0.55;0.50;;;24.20;46.80;;;;;;5032217;28;20080;-65
2022/09/03 03:31:50;;;;;;;0.82;0.60;;;24.20;46.80;;;;;;5031839;28;20087;-64
2022/09/03 03:34:15;;;;;;;1.35;0.60;;;24.30;46.90;;;;;;5032373;28;20021;-63
2022/09/03 03:36:41;;;;;;;0.52;0.50;;;24.20;46.80;;;;;;5032162;28;20037;-65
2022/09/03 03:39:07;;;;;;;0.65;0.57;;;24.20;46.80;;;;;;5032226;28;20389;-64
2022/09/03 03:41:34;;;;;;;0.60;0.60;;;24.20;46.90;;;;;;5032293;28;20469;-65
2022/09/03 03:44:03;;;;;;;0.73;0.57;;;24.20;46.90;;;;;;5032229;28;20484;-64
2022/09/03 03:46:32;;;;;;;0.53;0.50;;;24.20;46.90;;;;;;5031233;28;20455;-64
2022/09/03 03:48:58;;;;;;;0.45;0.45;;;24.20;46.90;;;;;;5031262;28;20033;-65
2022/09/03 03:51:24;;;;;;;0.38;0.38;;;24.20;46.90;;;;;;5031870;28;20065;-64
2022/09/03 03:53:54;;;;;;;0.75;0.50;;;24.10;46.90;;;;;;5031980;28;20033;-63
2022/09/03 03:56:20;;;;;;;0.90;0.70;;;24.10;46.90;;;;;;5031623;28;20040;-63
2022/09/03 03:58:47;;;;;;;0.50;0.50;;;24.20;47.00;;;;;;5031864;28;20033;-65
2022/09/03 04:01:17;;;;;;;0.88;0.43;;;24.10;46.90;;;;;;5031509;28;20120;-64
2022/09/03 04:03:43;;;;;;;0.60;0.50;;;24.10;47.00;;;;;;5031317;28;20519;-64
2022/09/03 04:06:10;;;;;;;0.88;0.75;;;24.10;47.00;;;;;;5031759;28;20053;-63
2022/09/03 04:08:38;;;;;;;0.63;0.52;;;24.10;47.00;;;;;;5031799;28;20026;-65
2022/09/03 04:11:07;;;;;;;0.52;0.50;;;24.10;47.00;;;;;;5031685;28;20033;-65
2022/09/03 04:13:35;;;;;;;0.60;0.50;;;24.10;47.00;;;;;;5031319;28;20546;-64
2022/09/03 04:16:03;;;;;;;0.40;0.40;;;24.10;47.00;;;;;;5029325;28;20041;-64
2022/09/03 04:18:29;;;;;;;0.40;0.40;;;24.10;47.10;;;;;;5031570;28;20034;-64
2022/09/03 04:21:03;;;;;;;0.82;0.55;;;24.10;47.10;;;;;;5031514;28;20041;-64
2022/09/03 04:23:30;;;;;;;0.57;0.52;;;24.10;47.60;;;;;;5031548;28;20021;-63
2022/09/03 04:25:55;;;;;;;0.40;0.40;;;24.10;47.60;;;;;;5030203;28;20477;-64
2022/09/03 04:28:21;;;;;;;0.93;0.60;;;24.10;47.10;;;;;;5031390;28;20039;-65
2022/09/03 04:30:47;;;;;;;0.60;0.50;;;24.10;47.10;;;;;;5031038;28;20485;-65
2022/09/03 04:33:12;;;;;;;0.70;0.60;;;24.10;47.20;;;;;;5031312;28;20034;-65
2022/09/03 04:35:39;;;;;;;0.50;0.50;;;24.10;47.20;;;;;;5031295;28;20030;-64
2022/09/03 04:38:06;;;;;;;0.50;0.50;;;24.10;47.20;;;;;;5031277;28;20028;-64
2022/09/03 04:40:32;;;;;;;0.95;0.60;;;24.00;47.10;;;;;;5030716;28;20025;-64
2022/09/03 04:42:59;;;;;;;0.82;0.60;;;24.10;47.20;;;;;;5031286;28;20018;-64
2022/09/03 04:45:24;;;;;;;0.50;0.50;;;24.00;47.10;;;;;;5031254;28;20476;-63
2022/09/03 04:48:01;;;;;;;1.10;0.45;;;24.00;47.10;;;;;;5031306;28;20021;-64
2022/09/03 04:50:28;;;;;;;0.57;0.57;;;24.00;47.10;;;;;;5031223;28;20443;-64
2022/09/03 04:52:58;;;;;;;0.60;0.60;;;24.00;47.20;;;;;;5031123;28;20484;-65
2022/09/03 04:55:24;;;;;;;0.50;0.50;;;24.00;47.20;;;;;;5030758;28;20124;-65
2022/09/03 04:57:51;;;;;;;0.50;0.50;;;24.00;47.20;;;;;;5031112;28;20037;-64
2022/09/03 05:00:17;;;;;;;0.60;0.50;;;24.00;47.20;;;;;;5030717;28;20017;-66
2022/09/03 05:02:48;;;;;;;0.70;0.60;;;24.00;47.20;;;;;;5031293;28;20083;-65
2022/09/03 05:05:13;;;;;;;0.60;0.60;;;24.00;47.30;;;;;;5030814;28;20037;-64
2022/09/03 05:07:40;;;;;;;0.40;0.40;;;24.00;47.20;;;;;;5031111;28;20507;-64
2022/09/03 05:10:07;;;;;;;0.77;0.52;;;24.00;47.30;;;;;;5031064;28;20156;-63
2022/09/03 05:12:33;;;;;;;0.70;0.50;;;24.00;47.30;;;;;;5031083;28;20354;-64
2022/09/03 05:14:58;;;;;;;0.60;0.57;;;23.90;47.20;;;;;;5030864;28;20049;-64
2022/09/03 05:17:25;;;;;;;0.82;0.50;;;24.00;47.30;;;;;;5030914;28;20041;-65
2022/09/03 05:19:51;;;;;;;0.75;0.52;;;23.90;47.20;;;;;;5030890;28;20018;-63
2022/09/03 05:22:20;;;;;;;0.68;0.60;;;23.90;47.30;;;;;;5030980;28;20033;-65
2022/09/03 05:24:47;;;;;;;0.90;0.73;;;23.90;47.30;;;;;;5030391;28;20109;-64
2022/09/03 05:27:15;;;;;;;1.35;0.70;;;23.90;47.30;;;;;;5030890;28;20036;-65
2022/09/03 05:29:42;;;;;;;1.37;0.70;;;23.90;47.20;;;;;;5030847;28;20087;-64
2022/09/03 05:32:09;;;;;;;1.10;0.70;;;23.90;47.20;;;;;;5030396;28;20061;-65
2022/09/03 05:34:34;;;;;;;1.75;0.90;;;23.90;47.30;;;;;;5030795;28;20444;-64
2022/09/03 05:37:00;;;;;;;1.50;0.70;;;23.90;47.30;;;;;;5030781;28;20121;-64
2022/09/03 05:39:25;;;;;;;1.02;0.60;;;23.90;47.30;;;;;;5030752;28;20033;-65
2022/09/03 05:41:52;;;;;;;2.17;1.10;;;23.90;47.30;;;;;;5030697;28;20038;-65
2022/09/03 05:44:17;;;;;;;0.90;0.57;;;23.90;47.30;;;;;;5030716;28;20024;-64
2022/09/03 05:46:43;;;;;;;1.55;0.70;;;23.90;47.30;;;;;;5030692;28;20025;-64
2022/09/03 05:49:10;;;;;;;1.02;0.60;;;23.90;47.30;;;;;;5037966;28;20036;-64
2022/09/03 05:51:41;;;;;;;1.15;0.60;;;23.90;47.30;;;;;;5031625;28;20064;-64
2022/09/03 05:54:07;;;;;;;0.63;0.60;;;23.90;47.30;;;;;;5033775;28;20046;-64
2022/09/03 05:56:35;;;;;;;0.55;0.55;;;23.90;47.30;;;;;;5033866;28;20022;-65
2022/09/03 05:59:04;;;;;;;0.80;0.60;;;23.90;47.30;;;;;;5034116;28;20493;-64
2022/09/03 06:01:31;;;;;;;;;;;23.90;47.30;;;;;;5034067;28;20022;-65
2022/09/03 06:04:08;;;;;;;1.30;0.70;;;23.90;47.30;;;;;;5033985;28;20415;-65
2022/09/03 06:06:36;;;;;;;1.17;0.60;;;23.90;47.30;;;;;;5033559;28;20030;-64
2022/09/03 06:09:15;;;;;;;0.77;0.60;;;23.90;47.40;;;;;;5033312;28;20434;-65
2022/09/03 06:11:41;;;;;;;0.88;0.65;;;23.80;47.30;;;;;;5033411;28;20025;-63
2022/09/03 06:14:10;;;;;;;0.80;0.60;;;23.90;47.40;;;;;;5033665;28;20060;-64
2022/09/03 06:16:38;;;;;;;0.80;0.70;;;23.90;47.40;;;;;;5031646;28;20106;-64
2022/09/03 06:19:06;;;;;;;1.17;0.80;;;23.80;47.60;;;;;;5033819;28;20025;-65
2022/09/03 06:21:32;;;;;;;0.77;0.65;;;23.80;47.30;;;;;;5033124;28;20026;-65
2022/09/03 06:23:58;;;;;;;0.95;0.70;;;23.80;47.30;;;;;;5033559;28;20024;-64
2022/09/03 06:26:24;;;;;;;1.02;0.60;;;23.80;47.30;;;;;;5031743;28;20033;-65
2022/09/03 06:28:53;;;;;;;0.73;0.70;;;23.90;47.40;;;;;;5033470;28;20029;-64
2022/09/03 06:31:19;;;;;;;0.63;0.60;;;23.80;47.30;;;;;;5032456;28;20053;-64
2022/09/03 06:33:46;;;;;;;0.82;0.60;;;23.80;47.30;;;;;;5032759;28;20987;-64
2022/09/03 06:36:17;;;;;;;1.33;0.88;;;23.80;47.40;;;;;;5033243;28;20037;-65
2022/09/03 06:38:44;;;;;;;0.73;0.50;;;23.80;47.30;;;;;;5033246;28;20033;-64
2022/09/03 06:41:13;;;;;;;0.90;0.70;;;23.80;47.30;;;;;;5033325;28;20060;-65
2022/09/03 06:43:40;;;;;;;0.65;0.60;;;23.80;47.30;;;;;;5032731;28;20025;-65
2022/09/03 06:46:12;;;;;;;0.82;0.60;;;23.80;47.30;;;;;;5033249;28;20072;-68
2022/09/03 06:48:39;;;;;;;1.27;0.70;;;23.80;47.30;;;;;;5033212;28;20069;-68
2022/09/03 06:51:07;;;;;;;1.70;0.70;;;23.80;47.30;;;;;;5031586;28;20410;-68
2022/09/03 06:53:35;;;;;;;0.65;0.60;;;23.80;47.30;;;;;;5033044;28;20031;-68
2022/09/03 06:56:06;;;;;;;1.08;0.80;;;23.80;47.30;;;;;;5032958;28;20025;-68
2022/09/03 06:58:42;;;;;;;0.65;0.50;;;23.80;47.30;;;;;;5033278;28;20040;-68
2022/09/03 07:01:22;;;;;;;0.80;0.60;;;23.80;47.30;;;;;;5031279;28;20083;-68
2022/09/03 07:03:55;;;;;;;0.60;0.60;;;23.80;47.30;;;;;;5032091;28;20480;-68
2022/09/03 07:06:21;;;;;;;1.00;0.70;;;23.80;47.30;;;;;;5032910;28;20025;-68
2022/09/03 07:08:46;;;;;;;1.73;0.88;;;23.70;47.20;;;;;;5033144;28;20047;-68
2022/09/03 07:11:15;;;;;;;1.27;0.77;;;23.80;47.30;;;;;;5032754;28;20465;-68
2022/09/03 07:13:43;;;;;;;1.23;0.80;;;23.80;47.30;;;;;;5031286;28;20050;-68
2022/09/03 07:16:11;;;;;;;1.10;0.70;;;23.80;47.30;;;;;;5032644;28;20036;-68
2022/09/03 07:18:38;;;;;;;1.20;0.70;;;23.80;47.30;;;;;;5030581;28;20099;-68
2022/09/03 07:21:07;;;;;;;0.68;0.65;;;23.80;47.30;;;;;;5032058;28;20037;-68
2022/09/03 07:23:33;;;;;;;1.00;0.70;;;23.70;47.20;;;;;;5032570;28;20017;-68
2022/09/03 07:26:02;;;;;;;1.23;0.68;;;23.70;47.20;;;;;;5032511;28;20022;-68
2022/09/03 07:28:29;;;;;;;1.33;0.77;;;23.80;47.80;;;;;;5032506;28;20022;-68
2022/09/03 07:31:02;;;;;;;1.45;0.80;;;23.80;47.30;;;;;;5031935;28;20026;-68
2022/09/03 07:33:30;;;;;;;1.05;0.70;;;23.70;47.30;;;;;;5032334;28;20045;-68
2022/09/03 07:36:01;;;;;;;0.90;0.70;;;23.80;47.30;;;;;;5032119;28;20481;-68
2022/09/03 07:38:26;;;;;;;0.88;0.60;;;23.80;47.40;;;;;;5032274;28;20033;-68
2022/09/03 07:41:00;;;;;;;1.15;0.70;;;23.70;47.30;;;;;;5032208;28;20033;-68
2022/09/03 07:43:32;;;;;;;1.10;0.70;;;23.70;47.30;;;;;;5031660;28;20030;-68
2022/09/03 07:46:00;;;;;;;1.33;0.70;;;23.70;47.30;;;;;;5031064;28;20538;-68
2022/09/03 07:48:26;;;;;;;0.80;0.60;;;23.70;47.30;;;;;;5032033;28;20104;-68
2022/09/03 07:50:53;;;;;;;0.90;0.70;;;23.70;47.30;;;;;;5031925;28;20132;-68
2022/09/03 07:53:21;;;;;;;1.38;0.70;;;23.70;47.30;;;;;;5031877;28;20017;-68
2022/09/03 07:55:47;;;;;;;1.00;0.60;;;23.70;47.30;;;;;;5032005;28;20029;-68
2022/09/03 07:58:13;;;;;;;1.10;0.70;;;23.70;47.30;;;;;;5032099;28;20110;-68
2022/09/03 08:00:39;;;;;;;1.10;0.80;;;23.70;47.40;;;;;;5031468;28;20148;-68
2022/09/03 08:03:07;;;;;;;1.05;0.90;;;23.70;47.40;;;;;;5031792;28;20427;-68
2022/09/03 08:05:35;;;;;;;0.88;0.70;;;23.70;47.30;;;;;;5031846;28;20029;-68
2022/09/03 08:08:02;;;;;;;1.10;0.75;;;23.70;47.40;;;;;;5031750;28;20103;-68
2022/09/03 08:10:30;;;;;;;0.85;0.70;;;23.70;47.40;;;;;;5031798;28;20503;-68
2022/09/03 08:12:57;;;;;;;1.35;0.70;;;23.70;47.40;;;;;;5031565;28;20544;-68
2022/09/03 08:15:23;;;;;;;0.50;0.50;;;23.70;47.40;;;;;;5030977;28;20097;-68
2022/09/03 08:17:48;;;;;;;0.90;0.73;;;23.70;47.50;;;;;;5030959;28;20029;-68
2022/09/03 08:20:14;;;;;;;0.90;0.57;;;23.70;47.50;;;;;;5031530;28;20128;-68
2022/09/03 08:22:40;;;;;;;0.68;0.60;;;23.70;47.50;;;;;;5031600;28;20021;-68
2022/09/03 08:25:06;;;;;;;1.02;0.80;;;23.70;47.50;;;;;;5031467;28;20021;-68
2022/09/03 08:27:32;;;;;;;0.60;0.60;;;23.70;47.50;;;;;;5031452;28;20120;-67
2022/09/03 08:29:57;;;;;;;0.68;0.60;;;23.70;47.50;;;;;;5031524;28;20029;-68
2022/09/03 08:32:23;;;;;;;0.70;0.65;;;23.70;47.50;;;;;;5030901;28;20447;-67
2022/09/03 08:34:51;;;;;;;0.70;0.70;;;23.70;47.50;;;;;;5031483;28;20526;-68
2022/09/03 08:37:17;;;;;;;1.30;0.70;;;23.70;47.60;;;;;;5030726;28;20025;-68
2022/09/03 08:39:43;;;;;;;1.20;0.60;;;23.70;47.50;;;;;;5031295;28;20985;-67
2022/09/03 08:42:36;;;;;;;0.50;0.50;;;23.70;47.60;;;;;;5031338;28;20036;-68
2022/09/03 08:45:07;;;;;;;0.65;0.57;;;23.70;47.60;;;;;;5029422;28;20112;-69
2022/09/03 08:47:45;;;;;;;0.70;0.60;;;23.70;47.60;;;;;;5031244;28;20029;-68
2022/09/03 08:50:25;;;;;;;0.80;0.80;;;23.70;47.60;;;;;;5029775;28;20033;-68
2022/09/03 08:53:10;;;;;;;0.65;0.60;;;23.60;47.60;;;;;;5030159;28;20243;-68
2022/09/03 08:55:52;;;;;;;0.88;0.65;;;23.60;47.60;;;;;;5030139;28;20021;-68
2022/09/03 08:58:25;;;;;;;0.82;0.60;;;23.70;47.70;;;;;;5030995;28;20489;-68
2022/09/03 09:01:03;;;;;;;1.10;0.65;;;23.60;47.70;;;;;;5030338;28;20036;-68
2022/09/03 09:04:05;;;;;;;1.00;0.65;;;23.60;47.70;;;;;;5021740;28;20500;-69
2022/09/03 09:06:47;;;;;;;0.80;0.52;;;23.60;47.70;;;;;;4998049;28;20045;-68
2022/09/03 09:09:40;;;;;;;1.75;0.85;;;23.60;47.80;;;;;;5030087;28;20040;-69
2022/09/03 09:12:31;;;;;;;0.73;0.70;;;23.60;47.80;;;;;;5022068;28;20112;-68
2022/09/03 09:15:07;;;;;;;0.70;0.70;;;23.60;47.80;;;;;;5030270;28;20512;-68
2022/09/03 09:17:44;;;;;;;0.63;0.60;;;23.60;47.80;;;;;;5029679;28;20034;-69
2022/09/03 09:20:43;;;;;;;1.10;0.70;;;23.60;47.80;;;;;;5030966;28;20372;-68
2022/09/03 09:23:12;;;;;;;;;;;23.60;47.80;;;;;;5045107;28;20022;-68
2022/09/03 09:25:47;;;;;;;0.50;0.50;;;23.60;47.80;;;;;;5032044;28;19932;-68
2022/09/03 09:28:18;;;;;;;1.27;0.70;;;23.60;47.90;;;;;;5034102;28;20037;-68
2022/09/03 09:30:49;;;;;;;0.70;0.65;;;23.60;47.90;;;;;;5033565;28;20661;-68
2022/09/03 09:33:16;;;;;;;0.75;0.60;;;23.60;48.00;;;;;;5034569;28;20013;-68
2022/09/03 09:35:43;;;;;;;0.75;0.70;;;23.60;48.00;;;;;;5034278;28;20034;-68
2022/09/03 09:38:10;;;;;;;1.13;0.80;;;23.60;48.00;;;;;;5034499;28;20401;-68
2022/09/03 09:40:39;;;;;;;0.98;0.70;;;23.60;48.00;;;;;;5034344;28;20025;-68
2022/09/03 09:43:09;;;;;;;1.33;0.70;;;23.60;48.10;;;;;;5034109;28;20385;-68
2022/09/03 09:45:38;;;;;;;1.00;0.70;;;23.60;48.10;;;;;;5034451;28;20048;-68
2022/09/03 09:48:09;;;;;;;0.53;0.53;;;23.60;48.10;;;;;;5032637;28;20039;-68
2022/09/03 09:50:35;;;;;;;0.50;0.50;;;23.60;48.10;;;;;;5032661;28;20048;-68
2022/09/03 09:53:13;;;;;;;0.70;0.60;;;23.60;48.10;;;;;;5034219;28;20022;-68
2022/09/03 09:55:50;;;;;;;1.02;0.77;;;23.60;48.60;;;;;;5034122;28;20021;-68
2022/09/03 09:58:19;;;;;;;1.20;0.80;;;23.60;48.10;;;;;;5034018;28;20076;-68
2022/09/03 10:01:24;;;;;;;1.05;0.80;;;23.60;48.10;;;;;;5031653;28;20021;-68
2022/09/03 10:03:56;;;;;;;0.63;0.63;;;23.60;48.10;;;;;;5033830;28;20075;-68
2022/09/03 10:09:15;;;;;;;0.80;0.70;;;23.60;48.10;;;;;;5033393;28;20036;-69
2022/09/03 10:12:04;;;;;;;1.08;0.70;;;23.60;48.60;;;;;;5033799;28;20102;-68
2022/09/03 10:14:36;;;;;;;0.85;0.60;;;23.60;48.10;;;;;;4997980;28;20049;-69
2022/09/03 10:17:21;;;;;;;0.80;0.60;;;23.70;48.10;;;;;;5033594;28;20028;-68
2022/09/03 10:20:26;;;;;;;0.68;0.60;;;23.70;48.10;;;;;;5033843;28;20025;-68
2022/09/03 10:23:05;;;;;;;1.02;0.80;;;23.70;48.10;;;;;;5033602;28;20036;-68
2022/09/03 10:26:29;;;;;;;1.10;0.70;;;23.70;48.10;;;;;;5033444;28;20465;-68
2022/09/03 10:29:01;;;;;;;0.70;0.70;;;23.70;48.20;;;;;;4972291;28;20487;-68
2022/09/03 10:32:00;;;;;;;0.75;0.70;;;23.70;48.20;;;;;;5022908;28;20523;-68
2022/09/03 10:34:52;;;;;;;0.90;0.80;;;23.70;48.20;;;;;;5048801;28;20453;-68
2022/09/03 10:37:25;;;;;;;1.30;0.80;;;23.70;48.20;;;;;;5031889;28;20084;-69
2022/09/03 10:40:29;;;;;;;0.90;0.70;;;23.70;48.20;;;;;;5033566;28;20025;-68
2022/09/03 10:43:30;;;;;;;0.80;0.75;;;23.70;48.30;;;;;;5030105;28;20396;-68
2022/09/03 10:46:06;;;;;;;0.80;0.70;;;23.70;48.30;;;;;;5046606;28;20109;-68
2022/09/03 10:48:53;;;;;;;0.88;0.70;;;23.70;48.30;;;;;;5031984;28;20169;-69
2022/09/03 10:51:46;;;;;;;1.35;0.70;;;23.70;48.30;;;;;;5033298;28;20021;-68
2022/09/03 10:54:17;;;;;;;1.25;0.73;;;23.70;48.40;;;;;;5024686;28;20132;-69
2022/09/03 10:57:05;;;;;;;0.80;0.60;;;23.70;48.40;;;;;;5032357;28;20033;-68
2022/09/03 11:00:02;;;;;;;0.88;0.63;;;23.70;48.40;;;;;;5032415;28;20511;-68
2022/09/03 11:02:56;;;;;;;1.27;0.90;;;23.70;48.40;;;;;;5032251;28;20033;-68
2022/09/03 11:05:28;;;;;;;1.85;0.80;;;23.70;48.40;;;;;;5030936;28;20477;-68
2022/09/03 11:08:20;;;;;;;1.42;0.80;;;23.70;48.40;;;;;;5032914;28;20139;-67
2022/09/03 11:10:51;;;;;;;0.63;0.63;;;23.70;48.70;;;;;;5032437;28;20033;-68
2022/09/03 11:13:34;;;;;;;1.10;0.80;;;23.70;48.80;;;;;;5032704;28;20045;-69
2022/09/03 11:16:08;;;;;;;1.63;0.75;;;23.70;48.80;;;;;;5032549;28;20021;-67
2022/09/03 11:18:42;;;;;;;0.70;0.70;;;23.70;48.90;;;;;;5032714;28;20489;-68
2022/09/03 11:21:11;;;;;;;1.02;0.68;;;23.70;49.00;;;;;;5032221;28;20021;-69
2022/09/03 11:23:42;;;;;;;2.83;1.00;;;23.70;49.10;;;;;;5032622;28;20037;-68
2022/09/03 11:26:11;;;;;;;1.17;0.70;;;23.70;49.80;;;;;;5021878;28;20116;-68
2022/09/03 11:29:25;;;;;;;1.48;0.80;;;23.70;49.30;;;;;;5031368;28;20492;-68
2022/09/03 11:32:02;;;;;;;2.75;0.90;;;23.70;49.50;;;;;;5024931;28;20022;-68
2022/09/03 11:34:43;;;;;;;0.75;0.65;;;23.80;49.60;;;;;;5031668;28;20029;-70
2022/09/03 11:37:19;;;;;;;1.33;0.80;;;23.80;49.70;;;;;;5030012;28;20026;-68
2022/09/03 11:40:09;;;;;;;1.20;0.77;;;23.70;49.70;;;;;;5031920;28;20048;-68
2022/09/03 11:42:37;;;;;;;1.10;0.80;;;23.80;49.80;;;;;;5032188;28;20512;-68
2022/09/03 11:45:19;;;;;;;1.15;0.80;;;23.80;49.70;;;;;;5032088;28;20026;-67
2022/09/03 11:47:45;;;;;;;0.70;0.70;;;23.80;49.80;;;;;;5032204;28;20025;-69
2022/09/03 11:50:24;;;;;;;1.92;0.80;;;23.80;49.80;;;;;;5032123;28;20481;-68
2022/09/03 11:52:53;;;;;;;1.13;0.70;;;23.80;49.90;;;;;;5031965;28;20489;-68
2022/09/03 11:55:32;;;;;;;1.92;0.88;;;23.80;50.40;;;;;;5032261;28;20033;-69
2022/09/03 11:58:09;;;;;;;;;;;23.80;50.70;;;;;;5030931;28;20411;-68
2022/09/03 12:00:37;;;;;;;1.55;0.70;;;23.80;50.90;;;;;;5031792;28;20352;-68
2022/09/03 12:03:03;;;;;;;1.67;0.80;;;23.90;50.60;;;;;;5031761;28;20024;-69
2022/09/03 12:05:48;;;;;;;1.67;0.80;;;23.90;50.40;;;;;;5030739;28;20021;-68
2022/09/03 12:08:42;;;;;;;1.15;0.80;;;23.90;50.40;;;;;;5031769;28;20080;-68
2022/09/03 12:11:19;;;;;;;1.05;0.70;;;24.00;50.40;;;;;;5031035;28;20025;-70
2022/09/03 12:13:56;;;;;;;1.17;0.80;;;24.00;50.20;;;;;;5031656;28;20060;-69
2022/09/03 12:16:40;;;;;;;2.53;0.68;;;24.00;50.00;;;;;;5031048;28;20140;-68
2022/09/03 12:19:17;;;;;;;1.08;0.70;;;24.10;50.00;;;;;;5030855;28;20092;-68
2022/09/03 12:21:48;;;;;;;1.42;0.80;;;24.10;49.80;;;;;;5031241;28;20021;-68
2022/09/03 12:24:14;;;;;;;1.30;0.68;;;24.20;50.10;;;;;;5031150;28;20029;-68
2022/09/03 12:26:41;;;;;;;1.00;0.70;;;24.20;50.10;;;;;;5032091;28;20033;-68
2022/09/03 12:29:21;;;;;;;1.08;0.70;;;24.20;50.00;;;;;;5031255;28;20064;-66
2022/09/03 12:31:49;;;;;;;1.77;0.60;;;24.20;50.00;;;;;;5031261;28;20068;-68
2022/09/03 12:34:17;;;;;;;1.85;0.90;;;24.20;49.90;;;;;;5030202;28;20079;-69
2022/09/03 12:36:51;;;;;;;2.30;0.70;;;24.20;49.90;;;;;;5031908;28;20029;-68
2022/09/03 12:39:24;;;;;;;1.02;0.85;;;24.20;49.90;;;;;;5030995;28;20499;-68
2022/09/03 12:42:02;;;;;;;0.98;0.60;;;24.30;49.90;;;;;;5032217;28;20030;-68
2022/09/03 12:44:32;;;;;;;1.08;0.70;;;24.30;49.90;;;;;;5031843;28;20045;-68
2022/09/03 12:47:12;;;;;;;1.27;0.70;;;24.30;49.90;;;;;;5031664;28;20026;-68
2022/09/03 12:49:43;;;;;;;0.93;0.70;;;24.30;49.90;;;;;;5029999;28;20025;-68
2022/09/03 12:52:38;;;;;;;1.02;0.85;;;24.30;49.80;;;;;;5031461;28;20109;-68
2022/09/03 12:55:22;;;;;;;0.70;0.60;;;24.30;50.40;;;;;;5031871;28;20030;-68
2022/09/03 12:57:54;;;;;;;1.05;0.70;;;24.30;49.80;;;;;;5022393;28;20032;-69
2022/09/03 13:00:21;;;;;;;0.90;0.70;;;24.30;49.70;;;;;;5031557;28;20397;-68
2022/09/03 13:03:16;;;;;;;1.30;0.70;;;24.30;49.80;;;;;;5035389;28;20021;-68
2022/09/03 13:05:43;;;;;;;1.13;0.80;;;24.30;49.70;;;;;;4972101;28;20035;-68
2022/09/03 13:08:17;;;;;;;1.55;0.70;;;24.40;49.70;;;;;;5035529;28;20051;-68
2022/09/03 13:10:43;;;;;;;1.27;0.80;;;24.40;49.70;;;;;;5035950;28;20104;-68
2022/09/03 13:13:25;;;;;;;2.20;0.90;;;24.50;49.60;;;;;;5036260;28;20172;-69
2022/09/03 13:16:08;;;;;;;1.40;0.70;;;24.50;49.50;;;;;;5036424;28;20104;-69
2022/09/03 13:18:53;;;;;;;1.08;0.80;;;24.50;49.50;;;;;;5049576;28;20026;-69
2022/09/03 13:21:34;;;;;;;1.20;0.80;;;24.50;49.50;;;;;;5036416;28;20029;-69
2022/09/03 13:24:26;;;;;;;1.58;0.80;;;24.50;49.60;;;;;;5036480;28;20440;-69